Share

Kathryn, ND (58049)

Valley City (KBAC) Elev 1401 ft | 46.94 °N, 98.02 °W | Change Station
Active Advisory: Wind Advisory

Current weather conditions updated 15 minutes ago

Mostly Cloudy
Mostly Cloudy
43 °F
Feels Like 33 °F
N
26
Wind Variable Wind from SSE
Gusts 38 mph
Sunrise 6:39 AM
Sunset 8:24 PM
Moon Waning Gibbous

Tomorrow is forecast to be Much Warmer than today.

Pressure 29.79 in
Visibility 10.0 miles
Clouds Few 4100 ft
Scattered Clouds 4900 ft
Mostly Cloudy 12000 ft
Windchill 33 °F
Dew Point 32 °F
Humidity 66%
Rainfall 0.40 in
Snow Depth Not available.
UV 0 out of 16
Pollen 9.00 out of 12
Air Quality Not available.
Flu Activity Sporadic
METAR KBAC 190415Z AUTO 15023G33KT 10SM FEW041 SCT049 BKN120 06/00 A2979 RMK AO2

More Conditions Fewer Conditions

Pressure 29.79 in
Visibility 10.0 miles
Clouds Few 4100 ft
Scattered Clouds 4900 ft
Mostly Cloudy 12000 ft
Windchill 33 °F
Dew Point 32 °F
Humidity 66%
Rainfall 0.40 in
Snow Depth Not available.
UV 0 out of 16
Pollen 9.00 out of 12
Air Quality Not available.
Flu Activity Sporadic
METAR KBAC 190415Z AUTO 15023G33KT 10SM FEW041 SCT049 BKN120 06/00 A2979 RMK AO2

More Conditions Fewer Conditions

10-Day Weather Forecast

Almanac

Astronomy

Apr. 18, 2014 Rise Set
Actual Time 6:39 AM CDT 8:24 PM CDT
Civil Twilight 6:07 AM CDT 8:56 PM CDT
Nautical Twilight 5:27 AM CDT 9:35 PM CDT
Astronomical Twilight 4:45 AM CDT 10:18 PM CDT
Moon No Moon Rise 8:54 AM CDT (4/18)
Length of Visible Light 14h 49m
Length of Day
13h 45m
Tomorrow will be 3m 9s longer.
Waning Gibbous, 83% of the Moon is Illuminated
Apr 19
Waning Gibbous
Apr 22
Last Quarter
Apr 29
New
May 6
First Quarter
May 14
Full

Today's Extremes

State Highs State Lows

Community

  • Sunset Silhouettes
    Sunset Silhouettes
  • FL sunset Perico Isle
    FL sunset Perico Isle
  • Cloudy spring view
    Cloudy spring view
  • Old barn
    Old barn
  • What's for Lunch?
    What's for Lunch?

WunderPhotos

Upload Photos

1,702,639 photos uploaded!

WunderBlogs® & News

Nearby

Snow Depth

Station Depth Elevation
No new snow has been reported.

Coastal Water Temperatures

Place Temperature
No Stations Reporting

Earthquake Activity

City Distance Mag. Time & Date
No recent earthquake activity has been reported nearby.
Minimum magnitude displayed is 2.5.

Nearby Weather Stations

Station Location Temp. Windchill Dew Point Humidity Wind Precip. Elev Updated Type
Valley City State University, Valley City, ND 44.0 °F 39 °F - 66% SSE  at  9.0 mph 0.00 in / hr 1220 ft 11:21 PM CDT Normal

Show More Stations Show Fewer Stations

What do you think?

We're not finished. Please let us know what you like, what you don't like, and what you are still missing.